TAF and METAR

METAR for Polyarny Airport

UERP 251400Z 00000MPS CAVOK M41/M44 Q1028 R35/850537 NOSIG RMK QFE726
Report created 25. jan 15:00
wind 0 knots from N (000°) Clear sky Temperature -41° with dewpoint at -44° (Humidity 72.38%) Pressure 1028 hPa 5 mm of compact snow is covering 26% - 50% of runway 35 and friction coefficient is 0.37

TAF for Polyarny Airport

TAF UERP 251100Z 2512/2612 VRB01MPS 7000 NSC TXM41/2512Z TNM46/2518Z TEMPO 2512/2524 2100 BR
Report created 25. jan 12:00

between 25. jan 13:00 - 26. jan 13:00

wind 2 knots from various directions visibility 7000 meters No significant clouds. Max temperature -41° expected today at around 13 o'clock Min temperature -46° expected today at around 19 o'clock

temporarily between 25. jan 13:00 - 25. jan 01:00

visibility 2100 meters mist
Polyarny Airport in Russian Federation at 509m

Latest 5 airports